Time;durP1;ratioP1;P1;durP2;ratioP2;P2;SDS_P1;SDS_P2;PMS_P1;PMS_P2;Temp;Humidity;BMP_temperature;BMP_pressure;BME280_temperature;BME280_humidity;BME280_pressure;Samples;Min_cycle;Max_cycle;Signal;HPM_P1;HPM_P2
2022/06/07 00:00:08;;;;;;;6.55;5.22;;;;;;;17.71;69.19;94917.09;5003159;28;20224;-69
2022/06/07 00:02:35;;;;;;;6.25;5.65;;;;;;;17.38;71.02;94912.44;4987133;28;20254;-67
2022/06/07 00:05:02;;;;;;;7.43;5.50;;;;;;;17.40;71.56;94914.88;4998164;28;20242;-72
2022/06/07 00:07:27;;;;;;;5.82;5.28;;;;;;;17.48;70.95;94903.28;4994527;28;20210;-70
2022/06/07 00:09:54;;;;;;;9.93;5.82;;;;;;;17.51;70.68;94917.00;4998596;28;20601;-66
2022/06/07 00:12:20;;;;;;;9.43;5.50;;;;;;;17.54;70.61;94916.63;4992825;28;20301;-72
2022/06/07 00:14:46;;;;;;;7.43;5.78;;;;;;;17.41;71.32;94911.22;4998133;28;20246;-68
2022/06/07 00:17:12;;;;;;;8.88;5.82;;;;;;;17.39;71.53;94915.91;4998743;28;20289;-69
2022/06/07 00:19:38;;;;;;;6.78;5.60;;;;;;;17.47;71.58;94910.44;4997622;28;20203;-68
2022/06/07 00:22:04;;;;;;;9.40;6.18;;;;;;;17.56;71.18;94919.91;5001200;28;20202;-66
2022/06/07 00:24:30;;;;;;;8.57;6.53;;;;;;;17.67;70.06;94928.31;5000890;28;20238;-69
2022/06/07 00:26:56;;;;;;;8.30;7.22;;;;;;;17.59;70.82;94924.00;5001169;28;20230;-67
2022/06/07 00:29:23;;;;;;;11.45;8.30;;;;;;;17.48;71.31;94927.19;5004805;28;20234;-69
2022/06/07 00:31:49;;;;;;;9.88;8.35;;;;;;;17.50;71.61;94922.50;4990591;28;20234;-67
2022/06/07 00:34:14;;;;;;;9.65;8.10;;;;;;;17.67;71.07;94923.00;4997096;28;20261;-68
2022/06/07 00:36:40;;;;;;;11.80;7.75;;;;;;;17.58;71.22;94920.50;4995708;28;20232;-65
2022/06/07 00:39:07;;;;;;;9.82;8.82;;;;;;;17.62;71.15;94915.63;4999822;28;20782;-65
2022/06/07 00:41:33;;;;;;;12.88;8.77;;;;;;;17.66;71.22;94916.88;4999590;28;20219;-67
2022/06/07 00:44:30;;;;;;;10.73;8.07;;;;;;;17.47;72.38;94918.41;4989613;28;20235;-68
2022/06/07 00:46:59;;;;;;;8.32;7.60;;;;;;;17.37;72.68;94916.13;4959645;28;20231;-63
2022/06/07 00:49:26;;;;;;;9.50;8.60;;;;;;;17.39;72.90;94918.56;4945651;28;20217;-66
2022/06/07 00:51:52;;;;;;;8.90;8.05;;;;;;;17.61;72.42;94914.81;4964388;28;20228;-67
2022/06/07 00:54:30;;;;;;;9.75;8.80;;;;;;;17.65;71.94;94917.88;4962343;28;20239;-67
2022/06/07 00:56:56;;;;;;;11.55;8.77;;;;;;;17.61;71.81;94917.47;4982220;28;20228;-67
2022/06/07 00:59:23;;;;;;;10.63;8.38;;;;;;;17.47;72.29;94912.28;4978646;28;20832;-67
2022/06/07 01:01:50;;;;;;;10.88;9.75;;;;;;;17.35;72.78;94915.50;4979560;28;20239;-67
2022/06/07 01:04:16;;;;;;;9.77;8.88;;;;;;;17.32;72.65;94915.88;4966127;28;20211;-67
2022/06/07 01:12:10;;;;;;;10.70;9.40;;;;;;;17.26;73.22;94926.47;4983174;28;20234;-67
2022/06/07 01:14:36;;;;;;;11.10;10.00;;;;;;;17.32;72.78;94923.88;4983864;28;20273;-67
2022/06/07 01:17:02;;;;;;;10.27;9.30;;;;;;;17.15;73.29;94923.34;4966737;28;20235;-68
2022/06/07 01:19:27;;;;;;;12.00;9.23;;;;;;;17.11;73.83;94918.63;4968971;28;20247;-64
2022/06/07 01:21:53;;;;;;;9.48;8.57;;;;;;;17.26;73.49;94918.50;4984777;28;20326;-67
2022/06/07 01:24:18;;;;;;;11.00;9.55;;;;;;;17.35;72.99;94915.50;4997356;28;20257;-68
2022/06/07 01:26:44;;;;;;;11.80;9.57;;;;;;;17.34;72.92;94921.81;5002200;28;20231;-67
2022/06/07 01:29:11;;;;;;;9.98;8.77;;;;;;;17.29;72.89;94924.22;5003150;28;20223;-66
2022/06/07 01:31:36;;;;;;;9.88;8.98;;;;;;;16.90;74.67;94927.47;5001001;28;20212;-68
2022/06/07 01:34:02;;;;;;;10.02;9.18;;;;;;;16.89;74.86;94928.47;5003493;28;20209;-66
2022/06/07 01:36:27;;;;;;;10.40;9.05;;;;;;;16.98;74.66;94929.97;5003974;28;20222;-66
2022/06/07 01:41:55;;;;;;;10.57;9.10;;;;;;;16.88;75.30;94926.81;4996602;28;20241;-68
2022/06/07 01:44:28;;;;;;;9.82;8.93;;;;;;;17.25;73.81;94922.19;5002436;28;20269;-69
2022/06/07 01:46:56;;;;;;;11.30;8.95;;;;;;;17.24;73.58;94917.88;5016051;28;20337;-67
2022/06/07 01:49:23;;;;;;;10.48;9.40;;;;;;;17.17;73.11;94917.84;5004835;28;20202;-70
2022/06/07 01:51:50;;;;;;;12.05;9.27;;;;;;;17.02;73.49;94911.81;4997138;28;20228;-70
2022/06/07 01:54:17;;;;;;;10.73;8.75;;;;;;;17.05;73.80;94919.38;5003081;28;20227;-70
2022/06/07 01:56:42;;;;;;;10.23;9.23;;;;;;;16.88;74.75;94911.72;5001864;28;20242;-68
2022/06/07 01:59:08;;;;;;;10.85;9.30;;;;;;;16.93;74.23;94905.81;4993451;28;20223;-65
2022/06/07 02:01:35;;;;;;;10.80;9.73;;;;;;;16.94;74.40;94905.63;5002610;28;20207;-71
2022/06/07 02:04:00;;;;;;;11.93;9.18;;;;;;;16.91;74.73;94911.31;5000491;28;20266;-69
2022/06/07 02:06:26;;;;;;;10.25;9.38;;;;;;;17.00;74.56;94897.88;5002882;28;20224;-67
2022/06/07 02:08:51;;;;;;;10.50;9.48;;;;;;;16.92;74.46;94905.00;5013102;28;20235;-67
2022/06/07 02:11:20;;;;;;;10.15;9.25;;;;;;;16.97;74.73;94905.25;5000247;28;20223;-70
2022/06/07 02:13:46;;;;;;;10.43;9.48;;;;;;;17.13;73.76;94909.44;5000323;28;20206;-71
2022/06/07 02:16:13;;;;;;;9.02;8.10;;;;;;;17.14;73.29;94910.25;4999564;28;20250;-69
2022/06/07 02:18:39;;;;;;;9.48;8.40;;;;;;;16.93;74.49;94901.31;5000525;28;20230;-72
2022/06/07 02:21:06;;;;;;;9.95;9.00;;;;;;;17.02;74.43;94901.19;5006044;28;20227;-68
2022/06/07 02:23:34;;;;;;;10.38;8.82;;;;;;;16.97;74.85;94907.91;5001588;28;20254;-69
2022/06/07 02:26:32;;;;;;;10.73;9.65;;;;;;;16.85;75.25;94919.25;5000848;28;20235;-68
2022/06/07 02:29:03;;;;;;;10.38;9.43;;;;;;;16.92;75.50;94912.13;4976693;28;20656;-67
2022/06/07 02:31:34;;;;;;;10.07;9.27;;;;;;;16.71;76.39;94919.13;4962318;28;20212;-67
2022/06/07 02:34:01;;;;;;;9.75;8.85;;;;;;;16.73;76.12;94919.75;4965919;28;20345;-68
2022/06/07 02:36:28;;;;;;;11.45;8.73;;;;;;;16.92;75.98;94909.47;4975899;28;20255;-71
2022/06/07 02:38:55;;;;;;;9.73;8.68;;;;;;;16.94;75.66;94910.94;4963539;28;20235;-67
2022/06/07 02:41:22;;;;;;;9.43;8.55;;;;;;;17.05;74.92;94914.06;4966559;28;20215;-68
2022/06/07 02:43:48;;;;;;;8.65;7.93;;;;;;;16.91;75.33;94915.81;4972086;28;20246;-68
2022/06/07 02:46:13;;;;;;;12.63;8.60;;;;;;;16.91;74.66;94916.63;4963452;28;20212;-69
2022/06/07 02:48:39;;;;;;;8.75;7.88;;;;;;;16.86;74.81;94919.03;4963751;28;20230;-71
2022/06/07 02:51:04;;;;;;;8.70;6.93;;;;;;;16.93;73.93;94925.22;4963399;28;20275;-70
2022/06/07 02:53:30;;;;;;;9.75;7.60;;;;;;;16.99;72.70;94923.63;4975771;28;20254;-69
2022/06/07 02:55:56;;;;;;;8.68;7.20;;;;;;;17.21;71.68;94927.03;4979573;28;20239;-68
2022/06/07 02:58:23;;;;;;;8.15;7.05;;;;;;;17.34;71.48;94926.31;4977101;28;20215;-67
2022/06/07 03:00:48;;;;;;;8.60;7.03;;;;;;;17.24;71.67;94924.03;4980239;28;20255;-68
2022/06/07 03:03:14;;;;;;;9.45;7.50;;;;;;;17.30;71.77;94930.38;4995348;28;20238;-69
2022/06/07 03:05:39;;;;;;;9.00;7.28;;;;;;;17.25;71.57;94938.13;4979837;28;20230;-69
2022/06/07 03:08:05;;;;;;;7.47;6.88;;;;;;;17.11;72.23;94934.56;4996673;28;20238;-69
2022/06/07 03:10:31;;;;;;;8.73;7.40;;;;;;;17.18;72.28;94941.53;4993158;28;20234;-68
2022/06/07 03:12:56;;;;;;;8.55;7.78;;;;;;;17.29;72.41;94948.16;4996061;28;20255;-69
2022/06/07 03:15:21;;;;;;;8.77;7.97;;;;;;;17.20;72.45;94949.31;5005664;28;20538;-64
2022/06/07 03:17:47;;;;;;;12.05;7.60;;;;;;;17.35;72.12;94947.38;5002791;28;20235;-67
2022/06/07 03:20:13;;;;;;;8.15;6.88;;;;;;;17.39;71.74;94953.13;4997111;28;20255;-69
2022/06/07 03:22:39;;;;;;;8.70;7.82;;;;;;;17.47;71.41;94957.47;4995558;28;20211;-65
2022/06/07 03:25:06;;;;;;;11.02;7.55;;;;;;;17.43;71.45;94946.41;5002278;28;20262;-66
2022/06/07 03:27:33;;;;;;;8.55;7.75;;;;;;;17.54;71.40;94961.00;4996188;28;20262;-64
2022/06/07 03:30:11;;;;;;;7.82;7.07;;;;;;;17.44;71.62;94952.53;4999438;28;20225;-68
2022/06/07 03:32:38;;;;;;;9.25;7.57;;;;;;;17.50;71.53;94951.75;4997147;28;20429;-66
2022/06/07 03:35:04;;;;;;;10.10;7.50;;;;;;;17.61;71.07;94959.16;5000329;28;20226;-68
2022/06/07 03:37:30;;;;;;;9.07;7.80;;;;;;;17.47;71.65;94955.63;5005633;28;20246;-68
2022/06/07 03:39:55;;;;;;;8.65;7.32;;;;;;;17.59;71.42;94958.56;4997374;28;20265;-68
2022/06/07 03:42:20;;;;;;;10.38;7.18;;;;;;;17.57;71.04;94957.94;4992773;28;20223;-66
2022/06/07 03:44:48;;;;;;;9.07;6.95;;;;;;;17.56;71.12;94959.78;4999116;28;20286;-69
2022/06/07 03:47:18;;;;;;;8.63;7.03;;;;;;;17.60;71.22;94963.69;5001220;28;20219;-64
2022/06/07 03:49:43;;;;;;;10.05;7.38;;;;;;;17.65;70.47;94960.44;5007031;28;20230;-68
2022/06/07 03:52:12;;;;;;;7.90;7.07;;;;;;;17.69;69.92;94966.16;4999403;28;20238;-68
2022/06/07 03:54:39;;;;;;;10.60;7.07;;;;;;;17.61;70.24;94961.84;5002203;28;20322;-68
2022/06/07 03:57:05;;;;;;;9.73;7.53;;;;;;;17.56;70.33;94957.13;5001223;28;20222;-66
2022/06/07 03:59:30;;;;;;;8.38;7.55;;;;;;;17.53;70.60;94962.81;4990811;28;20283;-67
2022/06/07 04:01:56;;;;;;;10.88;7.22;;;;;;;17.47;70.72;94963.59;5004105;28;20254;-66
2022/06/07 04:04:21;;;;;;;14.60;9.60;;;;;;;17.31;71.94;94953.28;5003863;28;20218;-67
2022/06/07 04:09:39;;;;;;;11.18;9.93;;;;;;;17.17;73.92;94953.19;4996389;28;20234;-68
2022/06/07 04:12:10;;;;;;;13.98;12.52;;;;;;;17.00;74.97;94961.63;4997533;28;20270;-69
2022/06/07 04:14:37;;;;;;;14.23;11.32;;;;;;;17.12;75.01;94958.25;5008149;28;20239;-64
2022/06/07 04:17:04;;;;;;;10.73;9.73;;;;;;;17.42;73.89;94966.03;4994866;28;20341;-70
2022/06/07 04:19:29;;;;;;;11.48;10.23;;;;;;;17.57;72.99;94960.59;4997606;28;20282;-67
2022/06/07 04:21:55;;;;;;;13.63;10.32;;;;;;;17.67;72.43;94965.53;5000987;28;20301;-72
2022/06/07 04:24:20;;;;;;;11.15;10.02;;;;;;;17.85;71.23;94971.19;5001230;28;20318;-67
2022/06/07 04:26:47;;;;;;;10.45;9.48;;;;;;;17.83;71.07;94973.25;5000418;28;20227;-69
2022/06/07 04:29:14;;;;;;;14.43;10.57;;;;;;;17.76;71.34;94978.50;4995247;28;20234;-64
2022/06/07 04:31:39;;;;;;;15.40;9.85;;;;;;;17.79;71.45;94972.78;4996638;28;20203;-69
2022/06/07 04:34:05;;;;;;;15.45;10.80;;;;;;;17.75;71.80;94966.22;4995559;28;20261;-63
2022/06/07 04:36:31;;;;;;;19.73;11.40;;;;;;;17.68;71.61;94962.69;4997445;28;20246;-68
2022/06/07 04:38:57;;;;;;;14.85;10.40;;;;;;;17.74;71.23;94963.75;5000523;28;20231;-67
2022/06/07 04:41:23;;;;;;;12.27;10.32;;;;;;;17.93;70.42;94963.03;4999102;28;20295;-69
2022/06/07 04:43:49;;;;;;;13.18;9.65;;;;;;;17.96;70.30;94959.16;5001672;28;20239;-66
2022/06/07 04:46:15;;;;;;;16.60;10.55;;;;;;;18.05;69.92;94965.97;4996419;28;20210;-67
2022/06/07 04:48:42;;;;;;;15.25;11.57;;;;;;;18.03;69.86;94965.34;4999455;28;20293;-67
2022/06/07 04:51:11;;;;;;;12.15;10.07;;;;;;;18.01;70.16;94964.72;4999368;28;20232;-63
2022/06/07 04:53:36;;;;;;;13.93;10.80;;;;;;;17.93;70.84;94976.34;5001564;28;20258;-66
2022/06/07 04:56:11;;;;;;;13.75;10.68;;;;;;;17.94;70.44;94974.53;5003742;28;20262;-63
2022/06/07 04:58:36;;;;;;;14.48;11.43;;;;;;;18.00;70.20;94974.53;5002004;28;20211;-65
2022/06/07 05:01:08;;;;;;;15.93;11.75;;;;;;;17.57;71.98;94982.69;5002993;28;20238;-64
2022/06/07 05:03:34;;;;;;;14.88;12.68;;;;;;;17.89;71.20;94987.59;5002762;28;20347;-67
2022/06/07 05:05:59;;;;;;;19.20;12.65;;;;;;;18.04;71.16;94986.44;4998053;28;20329;-66
2022/06/07 05:08:24;;;;;;;14.98;13.63;;;;;;;18.25;70.39;94987.31;5002724;28;20231;-66
2022/06/07 05:10:50;;;;;;;19.48;15.15;;;;;;;18.43;69.79;94990.22;4995248;28;20218;-62
2022/06/07 05:13:15;;;;;;;19.20;16.55;;;;;;;18.40;69.76;94984.50;5001813;28;20211;-64
2022/06/07 05:15:41;;;;;;;22.90;17.55;;;;;;;18.37;69.63;94982.25;5002215;28;20239;-65
2022/06/07 05:18:07;;;;;;;23.25;18.20;;;;;;;18.35;69.41;94982.44;5002209;28;20223;-66
2022/06/07 05:20:33;;;;;;;20.50;18.17;;;;;;;18.34;69.72;94988.78;4997695;28;20732;-65
2022/06/07 05:22:58;;;;;;;19.08;17.10;;;;;;;18.08;70.26;94982.34;5002798;28;20227;-66
2022/06/07 05:25:24;;;;;;;18.40;14.98;;;;;;;18.04;70.28;94988.25;4996029;28;20214;-64
2022/06/07 05:27:50;;;;;;;16.88;15.18;;;;;;;18.28;69.98;94992.22;4992737;28;20223;-69
2022/06/07 05:30:16;;;;;;;24.55;16.00;;;;;;;18.39;69.11;94986.34;4999581;28;20227;-67
2022/06/07 05:32:42;;;;;;;18.00;14.93;;;;;;;18.43;68.97;95000.88;5000156;28;20272;-66
2022/06/07 05:35:08;;;;;;;16.17;14.43;;;;;;;18.40;68.80;94995.97;5001854;28;20235;-68
2022/06/07 05:37:34;;;;;;;23.00;14.02;;;;;;;18.48;68.05;94997.63;4996682;28;20227;-68
2022/06/07 05:40:02;;;;;;;15.63;13.98;;;;;;;18.48;67.48;94993.13;4991202;28;20211;-68
2022/06/07 05:42:29;;;;;;;17.45;14.63;;;;;;;18.51;68.01;94989.22;5007840;28;20233;-68
2022/06/07 05:44:54;;;;;;;15.68;14.13;;;;;;;18.81;66.84;94996.88;4995374;28;20313;-67
2022/06/07 05:47:19;;;;;;;15.63;13.25;;;;;;;18.79;66.82;94991.78;4991131;28;20211;-70
2022/06/07 05:49:45;;;;;;;17.75;13.93;;;;;;;18.88;66.23;94995.06;4998640;28;20219;-68
2022/06/07 05:52:11;;;;;;;16.23;14.63;;;;;;;18.57;67.90;94993.75;4997553;28;20195;-69
2022/06/07 05:54:40;;;;;;;18.88;16.38;;;;;;;18.37;68.32;94995.56;4994127;28;20203;-71
2022/06/07 05:57:07;;;;;;;22.73;16.52;;;;;;;18.60;68.00;94995.19;4992495;28;20230;-69
2022/06/07 05:59:33;;;;;;;18.75;16.75;;;;;;;18.41;68.49;94986.13;4992942;28;20247;-68
2022/06/07 06:01:58;;;;;;;26.00;17.00;;;;;;;18.32;69.67;94993.47;4993378;28;20226;-68
2022/06/07 06:04:27;;;;;;;23.55;17.25;;;;;;;18.50;69.47;94993.75;4997810;28;20210;-68
2022/06/07 06:06:57;;;;;;;22.02;17.92;;;;;;;18.82;68.47;94987.88;4997836;28;20313;-70
2022/06/07 06:12:07;;;;;;;21.55;17.27;;;;;;;19.24;67.21;94993.81;4992150;28;20292;-68
2022/06/07 06:14:33;;;;;;;25.98;18.77;;;;;;;19.07;67.38;94983.59;4995285;28;20559;-68
2022/06/07 06:16:59;;;;;;;20.10;17.50;;;;;;;19.24;66.48;94989.31;4993868;28;20238;-71
2022/06/07 06:19:24;;;;;;;26.77;18.77;;;;;;;19.39;65.80;94978.44;4994327;28;20206;-67
2022/06/07 06:21:50;;;;;;;24.20;19.42;;;;;;;19.19;66.08;94983.78;4993390;28;20228;-69
2022/06/07 06:24:17;;;;;;;21.00;17.88;;;;;;;19.24;66.39;94980.50;4999775;28;20230;-66
2022/06/07 06:26:43;;;;;;;22.10;17.20;;;;;;;19.55;65.22;94974.53;4998242;28;20294;-67
2022/06/07 06:29:09;;;;;;;17.02;15.32;;;;;;;19.80;64.28;94980.84;4995691;28;20234;-68
2022/06/07 06:31:35;;;;;;;17.05;15.18;;;;;;;19.92;63.13;94986.34;4997511;28;20223;-74
2022/06/07 06:34:01;;;;;;;19.98;17.98;;;;;;;20.13;62.72;94979.06;4994932;28;20327;-67
2022/06/07 06:36:27;;;;;;;19.45;16.65;;;;;;;20.15;62.82;94972.50;4998132;28;20261;-73
2022/06/07 06:38:53;;;;;;;18.95;17.02;;;;;;;19.99;63.30;94967.63;4991712;28;20231;-71
2022/06/07 06:41:28;;;;;;;21.48;16.88;;;;;;;20.01;63.18;94968.25;4997389;28;20223;-65
2022/06/07 06:43:58;;;;;;;18.60;16.67;;;;;;;20.11;63.37;94968.63;4998035;28;20222;-69
2022/06/07 06:46:49;;;;;;;18.92;17.08;;;;;;;20.13;62.89;94971.91;4997858;28;20199;-67
2022/06/07 06:49:15;;;;;;;21.83;16.42;;;;;;;20.21;62.99;94971.66;4993605;28;20234;-69
2022/06/07 06:51:42;;;;;;;19.45;17.65;;;;;;;20.18;63.01;94963.25;4993974;28;20242;-66
2022/06/07 06:54:11;;;;;;;21.30;17.05;;;;;;;19.86;64.13;94963.19;5006953;28;20247;-67
2022/06/07 06:56:37;;;;;;;20.63;17.38;;;;;;;19.83;64.65;94959.09;4998182;28;20278;-67
2022/06/07 06:59:02;;;;;;;26.85;17.20;;;;;;;19.82;64.49;94959.28;4991957;28;20310;-68
2022/06/07 07:01:31;;;;;;;19.27;17.25;;;;;;;19.88;65.05;94960.28;4996148;28;20306;-69
2022/06/07 07:03:58;;;;;;;18.20;16.27;;;;;;;19.79;65.55;94957.03;5001344;28;20540;-70
2022/06/07 07:06:25;;;;;;;21.30;17.83;;;;;;;19.83;64.49;94961.75;4995901;28;20229;-66
2022/06/07 07:08:50;;;;;;;20.85;18.08;;;;;;;20.00;64.35;94964.78;4995179;28;20234;-67
2022/06/07 07:11:19;;;;;;;20.60;16.88;;;;;;;19.99;64.63;94959.63;4988926;28;20223;-69
2022/06/07 07:13:46;;;;;;;20.17;18.23;;;;;;;19.74;64.76;94960.34;4999239;28;20211;-72
2022/06/07 07:16:15;;;;;;;20.67;18.40;;;;;;;19.87;64.75;94959.47;5001846;28;20285;-71
2022/06/07 07:18:40;;;;;;;18.75;16.73;;;;;;;19.81;65.27;94953.13;4994455;28;20242;-73
2022/06/07 07:21:12;;;;;;;17.40;15.73;;;;;;;19.93;64.60;94952.47;4998821;28;20227;-75
2022/06/07 07:23:38;;;;;;;17.33;15.70;;;;;;;19.80;64.99;94948.81;5001906;28;20241;-66
2022/06/07 07:26:14;;;;;;;18.05;16.25;;;;;;;19.68;64.84;94953.19;5001237;28;20238;-74
2022/06/07 07:28:40;;;;;;;17.20;15.40;;;;;;;19.81;64.36;94949.66;4999655;28;20206;-65
2022/06/07 07:31:10;;;;;;;16.38;14.98;;;;;;;19.84;64.56;94946.56;4998654;28;20211;-65
2022/06/07 07:33:35;;;;;;;16.88;15.18;;;;;;;20.03;64.00;94942.19;4997580;28;20227;-67
2022/06/07 07:36:02;;;;;;;17.90;14.32;;;;;;;20.15;63.86;94945.78;5002805;28;20227;-73
2022/06/07 07:38:27;;;;;;;12.90;11.70;;;;;;;20.33;63.64;94938.94;4997469;28;20281;-69
2022/06/07 07:40:53;;;;;;;14.43;13.18;;;;;;;20.48;63.12;94939.47;4993923;28;20231;-68
2022/06/07 07:43:19;;;;;;;11.30;10.40;;;;;;;20.48;63.21;94939.47;4997817;28;20214;-70
2022/06/07 07:45:45;;;;;;;13.10;11.73;;;;;;;20.60;62.04;94927.09;4998437;28;20219;-65
2022/06/07 07:48:12;;;;;;;13.93;11.00;;;;;;;20.54;62.31;94933.31;4990588;28;20226;-68
2022/06/07 07:50:39;;;;;;;14.38;10.80;;;;;;;20.62;61.88;94930.38;4994610;28;20320;-68
2022/06/07 07:53:05;;;;;;;11.40;10.50;;;;;;;20.55;60.62;94924.25;4991300;28;20452;-70
2022/06/07 07:55:31;;;;;;;11.05;10.00;;;;;;;20.60;61.23;94913.72;4979012;28;20698;-74
2022/06/07 07:57:57;;;;;;;9.43;8.63;;;;;;;20.64;62.02;94920.28;4996689;28;20299;-66
2022/06/07 08:00:23;;;;;;;12.00;9.98;;;;;;;20.78;61.59;94912.19;4998445;28;20226;-75
2022/06/07 08:02:49;;;;;;;10.77;9.13;;;;;;;20.88;59.78;94907.16;4994935;28;20262;-66
2022/06/07 08:05:14;;;;;;;8.52;7.75;;;;;;;20.87;59.73;94908.19;4995465;28;20231;-72
2022/06/07 08:07:40;;;;;;;8.32;7.43;;;;;;;20.90;59.06;94900.56;4994736;28;20204;-67
2022/06/07 08:10:06;;;;;;;7.25;6.30;;;;;;;20.99;57.59;94900.28;4992359;28;20203;-71
2022/06/07 08:12:32;;;;;;;6.03;5.57;;;;;;;20.95;56.59;94896.41;5001605;28;20216;-68
2022/06/07 08:14:59;;;;;;;7.35;6.63;;;;;;;20.95;55.35;94897.22;5003425;28;20254;-68
2022/06/07 08:17:26;;;;;;;7.07;6.47;;;;;;;21.03;56.59;94888.09;4995893;28;20278;-69
2022/06/07 08:19:52;;;;;;;6.97;6.30;;;;;;;21.06;59.50;94883.16;4995973;28;20226;-70
2022/06/07 08:22:18;;;;;;;4.97;4.60;;;;;;;21.19;54.14;94882.19;4991633;28;20324;-70
2022/06/07 08:24:43;;;;;;;5.22;4.50;;;;;;;21.20;53.71;94883.84;4999417;28;20250;-70
2022/06/07 08:27:09;;;;;;;5.75;5.22;;;;;;;21.21;55.04;94888.13;4993077;28;20224;-73
2022/06/07 08:29:34;;;;;;;5.25;4.53;;;;;;;21.28;53.54;94875.53;5001958;28;20225;-74
2022/06/07 08:32:00;;;;;;;5.10;4.30;;;;;;;21.32;51.53;94876.69;4995745;28;20235;-68
2022/06/07 08:39:54;;;;;;;8.25;5.70;;;;;;;21.57;52.70;94865.13;4994807;28;20233;-68
2022/06/07 08:42:28;;;;;;;5.60;5.03;;;;;;;21.69;51.11;94865.22;4990376;28;20230;-66
2022/06/07 08:45:12;;;;;;;4.95;4.45;;;;;;;21.69;52.41;94866.03;4992572;28;20222;-65
2022/06/07 08:47:41;;;;;;;7.25;3.78;;;;;;;21.89;49.90;94860.44;4991033;28;20220;-65
2022/06/07 08:50:32;;;;;;;4.82;4.22;;;;;;;22.06;50.52;94865.19;4995710;28;20235;-65
2022/06/07 08:53:10;;;;;;;3.78;3.47;;;;;;;21.98;52.22;94856.41;4990030;28;20753;-67
2022/06/07 08:55:43;;;;;;;5.88;3.97;;;;;;;22.10;49.74;94851.09;4997567;28;20217;-67
2022/06/07 08:58:25;;;;;;;4.60;4.20;;;;;;;22.16;49.37;94854.72;4993181;28;20286;-67
2022/06/07 09:00:57;;;;;;;4.20;3.90;;;;;;;22.21;47.88;94844.16;4995510;28;20231;-71
2022/06/07 09:03:46;;;;;;;4.45;3.95;;;;;;;22.27;46.00;94839.78;4999378;28;20225;-74
2022/06/07 09:06:24;;;;;;;3.58;3.28;;;;;;;22.15;46.28;94843.19;4992024;28;20230;-63
2022/06/07 09:08:54;;;;;;;4.13;3.72;;;;;;;22.21;47.23;94830.78;4991612;28;20235;-71
2022/06/07 09:14:20;;;;;;;6.28;4.18;;;;;;;22.48;43.89;94835.72;4992007;28;20293;-70
2022/06/07 09:16:45;;;;;;;4.32;3.63;;;;;;;22.53;43.93;94835.84;4991088;28;20316;-72
2022/06/07 09:19:25;;;;;;;4.75;3.40;;;;;;;22.51;44.51;94836.09;4993548;28;20208;-73
2022/06/07 09:21:51;;;;;;;3.65;3.35;;;;;;;22.71;45.14;94829.59;4998498;28;20227;-67
2022/06/07 09:24:23;;;;;;;4.18;3.88;;;;;;;22.81;43.30;94832.53;4999445;28;20231;-73
2022/06/07 09:26:49;;;;;;;6.10;3.90;;;;;;;22.85;42.29;94821.13;4991961;28;20336;-68
2022/06/07 09:29:20;;;;;;;6.90;3.85;;;;;;;22.95;43.82;94825.06;4992723;28;20231;-66
2022/06/07 09:31:48;;;;;;;4.80;4.40;;;;;;;23.01;43.27;94818.78;4987783;28;20239;-70
2022/06/07 09:34:25;;;;;;;6.22;4.13;;;;;;;23.14;45.35;94818.56;4988394;28;20218;-67
2022/06/07 09:37:05;;;;;;;4.75;4.35;;;;;;;23.38;43.60;94821.22;5000524;28;20239;-71
2022/06/07 09:39:43;;;;;;;7.07;4.47;;;;;;;23.40;44.37;94817.22;5013549;28;20222;-67
2022/06/07 09:42:24;;;;;;;4.97;4.65;;;;;;;23.45;42.01;94805.81;5001469;28;20511;-68
2022/06/07 09:45:30;;;;;;;4.45;4.13;;;;;;;23.61;41.53;94813.09;4991343;28;20230;-67
2022/06/07 09:47:56;;;;;;;7.55;4.63;;;;;;;23.93;43.73;94801.94;4947159;28;20698;-66
2022/06/07 09:50:22;;;;;;;10.32;6.80;;;;;;;23.91;41.92;94806.72;4944952;28;20402;-65
2022/06/07 09:52:53;;;;;;;20.00;14.05;;;;;;;24.01;42.37;94801.53;4952008;28;20225;-62
2022/06/07 09:55:30;;;;;;;7.68;5.10;;;;;;;24.21;42.72;94791.16;4968159;28;20293;-65
2022/06/07 09:58:13;;;;;;;6.00;4.60;;;;;;;24.23;44.24;94801.66;4964403;28;20224;-63
2022/06/07 10:01:04;;;;;;;5.25;4.75;;;;;;;23.91;42.14;94795.97;4957087;28;20228;-62
2022/06/07 10:03:41;;;;;;;5.15;4.65;;;;;;;23.80;44.33;94792.28;4962504;28;20242;-65
2022/06/07 10:06:15;;;;;;;4.97;4.15;;;;;;;23.92;45.67;94797.59;4945621;28;20290;-65
2022/06/07 10:08:57;;;;;;;6.88;4.85;;;;;;;24.50;43.14;94785.75;4950301;28;20223;-65
2022/06/07 10:11:58;;;;;;;4.65;4.25;;;;;;;24.62;40.19;94786.50;4942821;28;20286;-67
2022/06/07 10:14:49;;;;;;;5.13;4.43;;;;;;;24.81;39.07;94781.69;4960624;28;20547;-65
2022/06/07 10:17:43;;;;;;;9.23;5.32;;;;;;;24.91;39.90;94785.56;4942249;28;20228;-66
2022/06/07 10:20:26;;;;;;;5.57;4.28;;;;;;;25.02;38.59;94780.09;5011962;28;20227;-62
2022/06/07 10:23:06;;;;;;;5.18;3.65;;;;;;;25.24;38.75;94768.56;4992403;28;20376;-64
2022/06/07 10:25:54;;;;;;;4.65;4.20;;;;;;;25.32;40.02;94770.84;4993111;28;20270;-66
2022/06/07 10:28:24;;;;;;;4.32;4.03;;;;;;;25.48;38.92;94775.34;5009783;28;20222;-62
2022/06/07 10:31:04;;;;;;;5.60;4.72;;;;;;;25.60;37.93;94769.00;5001223;28;20252;-66
2022/06/07 10:33:55;;;;;;;5.63;4.00;;;;;;;25.70;37.32;94769.13;4991565;28;20309;-64
2022/06/07 10:36:51;;;;;;;8.63;4.95;;;;;;;25.83;38.10;94763.34;4997613;28;20293;-62
2022/06/07 10:39:38;;;;;;;5.20;4.70;;;;;;;26.05;37.66;94762.50;4997493;28;20228;-66
2022/06/07 10:42:09;;;;;;;5.18;4.15;;;;;;;25.87;37.93;94763.66;4994111;28;20321;-62
2022/06/07 10:44:58;;;;;;;4.30;3.92;;;;;;;25.66;38.42;94751.84;5009237;28;20599;-62
2022/06/07 10:47:53;;;;;;;4.45;4.10;;;;;;;25.87;38.46;94744.81;4996508;28;20223;-66
2022/06/07 10:50:21;;;;;;;4.82;4.40;;;;;;;26.10;38.67;94741.81;4948397;28;20245;-62
2022/06/07 10:52:57;;;;;;;4.28;3.80;;;;;;;26.09;40.00;94742.06;4947529;28;20244;-66
2022/06/07 10:55:45;;;;;;;4.13;3.83;;;;;;;26.02;38.20;94734.19;4939913;28;20219;-64
2022/06/07 10:58:33;;;;;;;5.72;4.38;;;;;;;26.06;38.30;94731.78;4958143;28;20295;-64
2022/06/07 11:01:08;;;;;;;3.90;3.58;;;;;;;26.11;36.67;94731.84;4947217;28;20311;-63
2022/06/07 11:03:39;;;;;;;4.97;4.28;;;;;;;26.06;36.85;94731.78;4954823;28;20239;-68
2022/06/07 11:09:20;;;;;;;4.50;4.10;;;;;;;25.95;37.61;94723.66;4961453;28;20328;-62
2022/06/07 11:11:47;;;;;;;5.10;4.50;;;;;;;26.21;35.84;94726.56;4960334;28;20236;-64
2022/06/07 11:14:46;;;;;;;6.25;4.10;;;;;;;26.40;34.80;94725.09;4956535;28;20229;-64
2022/06/07 11:17:28;;;;;;;4.95;3.95;;;;;;;26.63;34.34;94719.63;4954873;28;20233;-66
2022/06/07 11:19:58;;;;;;;4.15;3.85;;;;;;;26.63;32.76;94719.63;4946975;28;20307;-64
2022/06/07 11:22:31;;;;;;;4.32;3.92;;;;;;;26.72;33.62;94720.75;4957372;28;20211;-66
2022/06/07 11:25:19;;;;;;;4.55;4.00;;;;;;;27.21;34.42;94717.81;4956032;28;20236;-65
2022/06/07 11:27:58;;;;;;;5.55;4.03;;;;;;;27.22;33.15;94728.34;4977338;28;20231;-70
2022/06/07 11:30:38;;;;;;;4.13;3.72;;;;;;;27.10;34.92;94727.72;4992209;28;20230;-64
2022/06/07 11:33:42;;;;;;;6.80;4.50;;;;;;;27.21;33.92;94715.94;4994067;28;20265;-64
2022/06/07 11:36:13;;;;;;;4.68;4.20;;;;;;;27.46;32.76;94711.72;5001650;28;20227;-67
2022/06/07 11:38:57;;;;;;;4.65;3.70;;;;;;;27.44;32.36;94716.56;4995536;28;20222;-68
2022/06/07 11:41:37;;;;;;;3.92;3.50;;;;;;;27.88;34.59;94708.06;4993151;28;20289;-63
2022/06/07 11:44:11;;;;;;;3.65;3.45;;;;;;;27.92;33.55;94715.38;4991401;28;20529;-63
2022/06/07 11:47:17;;;;;;;4.85;3.97;;;;;;;28.16;33.69;94709.44;4994504;28;20198;-68
2022/06/07 11:49:45;;;;;;;4.20;3.70;;;;;;;27.61;33.18;94689.34;4992320;28;20204;-64
2022/06/07 11:52:13;;;;;;;3.75;3.45;;;;;;;27.59;34.13;94707.72;5002583;28;20289;-64
2022/06/07 11:54:39;;;;;;;3.40;3.10;;;;;;;27.58;32.86;94700.66;5002590;28;20239;-66
2022/06/07 11:57:27;;;;;;;4.18;3.78;;;;;;;27.57;34.38;94697.16;4980724;28;20233;-65
2022/06/07 11:59:58;;;;;;;6.38;3.85;;;;;;;27.87;33.74;94684.81;4991392;28;20226;-66
2022/06/07 12:02:25;;;;;;;3.65;3.38;;;;;;;27.96;34.77;94682.41;4977904;28;20246;-66
2022/06/07 12:04:59;;;;;;;3.67;3.20;;;;;;;28.05;35.69;94678.91;4984193;28;20227;-64